Tropical Cyclones
[Index]
Main Index Home Page Stock Weather Photos Extreme Storms Discussion Storm News and Storm Chasing Reports Tropical Cyclones / Hurricanes / Typhoons Weather Data and Links Wild Fires / Bushfires Weather Observation Techniques Weather Picture Catalogue Tornado Pictures and Reports Stock Video Footage and DVDs for sale
Season 1995-1996 Tropical Cyclone ETHEL Track Map
Season 1995-1996 Summaries: [BoM-AU] [JTWC-AU] [JTWC-SIO] [JTWC-SPAC] [JTWC-SH]
<<- Previous TC | JTWC 1995-1996 Season | Next TC ->>

click for intensity scale information  Lat/long Grid: Show Hide

 Date Labels: Show Hide

Joint Typhoon Warning Centre Cyclone Data

Name: ETHEL

07 Mar 1996 06:00 UTC to 17 Mar 1996 00:00 UTC

    date/time    lat    long     hPa   cat  kts
1996-03-07 06   15.6   137.5                  15          
1996-03-07 12   15.4   138.0                  20          
1996-03-07 18   15.3   138.4                  20          
1996-03-08 00   15.4   138.8                  20          
1996-03-08 06   15.2   139.2                  25          
1996-03-08 12   14.9   139.7                  30          
1996-03-08 18   14.3   140.1                  35          
1996-03-09 00   13.6   140.2            1     40          
1996-03-09 06   13.1   140.6            1     40          
1996-03-09 12   12.8   141.3            1     40          
1996-03-09 18   12.6   141.9            1     45          
1996-03-10 00   12.5   142.6            1     45          
1996-03-10 06   12.6   143.7            1     45          
1996-03-10 12   12.8   144.6            1     45          
1996-03-10 18   13.0   145.1            1     45          
1996-03-11 00   13.2   145.5            1     45          
1996-03-11 06   13.8   145.9            1     45          
1996-03-11 12   14.2   146.0            1     45          
1996-03-11 18   14.6   145.7            1     45          
1996-03-12 00   14.7   143.7            1     45          
1996-03-12 06   14.7   142.6            1     45          
1996-03-12 12   14.6   141.2            1     45          
1996-03-12 18   15.1   139.5            1     45          
1996-03-13 00   15.9   137.9            1     45          
1996-03-13 06   16.8   136.0                  35          
1996-03-13 12   17.8   134.3                  35          
1996-03-13 18   19.2   133.5                  35          
1996-03-14 00   20.6   133.4                  30          
1996-03-14 06   22.2   133.8                  25          
1996-03-14 12   23.4   135.3                  25          
1996-03-14 18   24.1   137.0                  25          
1996-03-15 00   24.5   138.6                  25          
1996-03-15 06   24.9   140.2                  25          
1996-03-15 12   24.9   142.3                  25          
1996-03-15 18   24.6   144.3                  25          
1996-03-16 00   23.9   146.1                  20          
1996-03-16 06   23.2   147.4                  20          
1996-03-16 12   22.3   148.6                  15          
1996-03-16 18   21.1   150.2                  15          
1996-03-17 00   19.8   152.0                  15          
Winds are 1-min average.

Tropical cyclone tracks developed by Michael Bath using data from the Joint Typhoon Warning Centre Best Tracks and Google Maps.


[Australian Severe Weather index] [Copyright Notice] [Email Contacts] [Search This Site] [Privacy Policy]
Document: tropical_cyclone_ethel.htm Updated: 18 September 2016